Time;durP1;ratioP1;P1;durP2;ratioP2;P2;SDS_P1;SDS_P2;PMS_P1;PMS_P2;Temp;Humidity;BMP_temperature;BMP_pressure;BME280_temperature;BME280_humidity;BME280_pressure;Samples;Min_cycle;Max_cycle;Signal;HPM_P1;HPM_P2
2022/06/23 00:01:05;;;;;;;;;;;;;;;23.16;45.14;101405.91;4866779;29;19917;-80
2022/06/23 00:03:31;;;;;;;;;;;;;;;23.17;45.13;101409.44;4866854;29;20369;-80
2022/06/23 00:05:59;;;;;;;;;;;;;;;23.17;45.44;101402.41;4883577;29;20003;-80
2022/06/23 00:08:28;;;;;;;;;;;;;;;23.15;45.67;101403.34;4870017;29;20405;-80
2022/06/23 00:13:24;;;;;;;;;;;;;;;23.16;45.30;101394.56;5436026;23;20452;-80
2022/06/23 00:15:50;;;;;;;;;;;;;;;23.16;45.55;101389.31;4871174;29;19915;-79
2022/06/23 00:18:17;;;;;;;;;;;;;;;23.16;45.29;101395.41;4887860;29;19916;-79
2022/06/23 00:20:49;;;;;;;;;;;;;;;23.15;45.32;101396.34;4887597;29;20014;-80
2022/06/23 00:23:32;;;;;;;;;;;;;;;23.16;45.32;101392.78;4875370;29;19918;-80
2022/06/23 00:26:03;;;;;;;;;;;;;;;23.16;45.38;101394.56;4873206;29;19928;-80
2022/06/23 00:28:37;;;;;;;;;;;;;;;23.15;45.25;101390.22;4871001;29;20002;-80
2022/06/23 00:31:04;;;;;;;;;;;;;;;23.15;45.59;101391.09;4887130;29;19918;-80
2022/06/23 00:33:37;;;;;;;;;;;;;;;23.16;45.33;101391.94;4885709;29;19936;-80
2022/06/23 00:36:13;;;;;;;;;;;;;;;23.16;45.33;101386.69;4868747;29;19918;-80
2022/06/23 00:38:39;;;;;;;;;;;;;;;23.17;45.23;101389.28;4886609;29;19944;-80
2022/06/23 00:41:05;;;;;;;;;;;;;;;23.15;45.30;101384.97;4888076;29;19912;-80
2022/06/23 00:43:31;;;;;;;;;;;;;;;23.15;45.19;101384.97;4870925;29;20026;-80
2022/06/23 00:46:20;;;;;;;;;;;;;;;23.15;45.54;101388.47;4875134;29;20314;-80
2022/06/23 00:48:51;;;;;;;;;;;;;;;23.15;45.24;101377.97;4837122;29;19912;-80
2022/06/23 00:51:23;;;;;;;;;;;;;;;23.14;45.40;101381.47;4885968;29;19915;-79
2022/06/23 00:53:53;;;;;;;;;;;;;;;23.14;45.30;101375.38;4869489;29;19967;-79
2022/06/23 00:56:38;;;;;;;;;;;;;;;23.16;45.05;101376.19;4886102;29;20330;-79
2022/06/23 00:59:09;;;;;;;;;;;;;;;23.16;45.43;101379.66;4886659;29;19940;-79
2022/06/23 01:01:34;;;;;;;;;;;;;;;23.16;45.22;101381.44;4869178;29;19919;-79
2022/06/23 01:04:20;;;;;;;;;;;;;;;23.15;45.47;101375.34;4885831;29;19911;-79
2022/06/23 01:06:50;;;;;;;;;;;;;;;23.15;45.45;101375.34;4867963;29;19912;-79
2022/06/23 01:09:15;;;;;;;;;;;;;;;23.15;45.51;101372.72;4870600;29;20278;-79
2022/06/23 01:11:42;;;;;;;;;;;;;;;23.15;45.57;101372.72;4869654;29;19963;-80
2022/06/23 01:14:08;;;;;;;;;;;;;;;23.15;45.60;101375.34;4884262;29;19920;-79
2022/06/23 01:16:40;;;;;;;;;;;;;;;23.15;45.16;101377.09;4885559;29;19995;-79
2022/06/23 01:19:05;;;;;;;;;;;;;;;23.15;45.36;101383.22;4885295;29;19916;-79
2022/06/23 01:21:39;;;;;;;;;;;;;;;23.14;45.47;101372.72;4867955;29;19963;-79
2022/06/23 01:24:23;;;;;;;;;;;;;;;23.14;45.56;101368.34;4884343;29;19912;-79
2022/06/23 01:26:57;;;;;;;;;;;;;;;23.13;45.62;101365.78;4884254;29;20417;-79
2022/06/23 01:29:32;;;;;;;;;;;;;;;23.14;45.45;101364.88;4883665;29;20359;-79
2022/06/23 01:32:26;;;;;;;;;;;;;;;23.14;45.56;101359.59;4883206;29;19912;-79
2022/06/23 01:34:55;;;;;;;;;;;;;;;23.13;45.68;101365.78;4800459;29;19917;-79
2022/06/23 01:37:32;;;;;;;;;;;;;;;23.12;45.64;101367.50;4865600;29;19918;-80
2022/06/23 01:40:27;;;;;;;;;;;;;;;23.14;45.45;101364.88;4867571;29;19967;-80
2022/06/23 01:42:59;;;;;;;;;;;;;;;23.12;45.52;101364.88;4875581;29;19919;-79
2022/06/23 01:45:43;;;;;;;;;;;;;;;23.12;45.62;101364.03;4867149;29;19912;-79
2022/06/23 01:48:12;;;;;;;;;;;;;;;23.11;45.64;101371.06;4866578;29;19912;-79
2022/06/23 01:50:42;;;;;;;;;;;;;;;23.12;45.66;101366.66;4865111;29;19911;-79
2022/06/23 01:53:21;;;;;;;;;;;;;;;23.11;45.61;101362.31;4882013;29;19916;-79
2022/06/23 01:55:59;;;;;;;;;;;;;;;23.10;45.68;101369.31;4869451;29;19915;-78
2022/06/23 01:58:28;;;;;;;;;;;;;;;23.10;45.70;101364.06;4867577;29;19923;-78
2022/06/23 02:00:57;;;;;;;;;;;;;;;23.12;45.62;101372.75;4865977;29;19912;-78
2022/06/23 02:03:25;;;;;;;;;;;;;;;23.14;45.73;101375.38;4881595;29;19911;-78
2022/06/23 02:06:11;;;;;;;;;;;;;;;23.13;45.46;101371.03;4865331;29;20014;-78
2022/06/23 02:08:51;;;;;;;;;;;;;;;23.12;45.78;101374.53;4886216;29;19911;-79
2022/06/23 02:11:33;;;;;;;;;;;;;;;23.12;45.41;101372.75;4887739;29;19916;-79
2022/06/23 02:14:08;;;;;;;;;;;;;;;23.11;45.44;101368.44;4870949;29;19920;-78
2022/06/23 02:16:39;;;;;;;;;;;;;;;23.13;45.33;101368.41;4871633;29;19912;-79
2022/06/23 02:19:17;;;;;;;;;;;;;;;23.12;45.46;101366.66;4886724;29;20354;-78
2022/06/23 02:21:54;;;;;;;;;;;;;;;23.10;45.49;101369.31;4868596;29;20385;-79
2022/06/23 02:24:29;;;;;;;;;;;;;;;23.11;45.46;101365.81;4867963;29;19911;-78
2022/06/23 02:26:57;;;;;;;;;;;;;;;23.12;45.36;101364.03;4868717;29;19916;-79
2022/06/23 02:29:27;;;;;;;;;;;;;;;23.12;45.27;101364.03;4883779;29;19916;-80
2022/06/23 02:31:55;;;;;;;;;;;;;;;23.11;45.60;101363.19;4870639;29;19912;-80
2022/06/23 02:34:41;;;;;;;;;;;;;;;23.10;45.40;101363.22;4876720;29;19944;-80
2022/06/23 02:37:25;;;;;;;;;;;;;;;23.11;45.29;101367.56;4893717;29;19988;-80
2022/06/23 02:39:53;;;;;;;;;;;;;;;23.11;45.55;101363.19;4886401;29;20419;-79
2022/06/23 02:42:18;;;;;;;;;;;;;;;23.11;45.54;101360.56;4886126;29;19912;-79
2022/06/23 02:44:43;;;;;;;;;;;;;;;23.12;45.42;101364.03;4869606;29;19912;-79
2022/06/23 02:47:11;;;;;;;;;;;;;;;23.12;45.12;101362.25;4884738;29;19911;-79
2022/06/23 02:49:36;;;;;;;;;;;;;;;23.12;45.40;101359.63;4867894;29;20007;-79
2022/06/23 02:52:05;;;;;;;;;;;;;;;23.13;45.12;101357.91;4884832;29;19943;-79
2022/06/23 02:54:45;;;;;;;;;;;;;;;23.11;45.26;101355.31;4869213;29;19951;-79
2022/06/23 02:57:33;;;;;;;;;;;;;;;23.11;45.10;101350.06;4867422;29;19967;-79
2022/06/23 02:59:58;;;;;;;;;;;;;;;23.11;45.19;101346.56;4866896;29;19916;-79
2022/06/23 03:02:37;;;;;;;;;;;;;;;23.10;45.19;101348.31;4866179;29;19994;-79
2022/06/23 03:05:12;;;;;;;;;;;;;;;23.11;45.40;101343.94;4867858;29;20370;-80
2022/06/23 03:08:03;;;;;;;;;;;;;;;23.10;45.18;101340.44;4884739;29;20002;-79
2022/06/23 03:10:41;;;;;;;;;;;;;;;23.11;45.05;101336.06;4882452;29;19912;-79
2022/06/23 03:13:21;;;;;;;;;;;;;;;23.11;45.13;101336.94;4882756;29;19912;-80
2022/06/23 03:15:53;;;;;;;;;;;;;;;23.09;44.98;101328.22;4867806;29;20289;-80
2022/06/23 03:18:21;;;;;;;;;;;;;;;23.09;45.26;101328.22;4875248;29;19920;-80
2022/06/23 03:21:00;;;;;;;;;;;;;;;23.09;44.99;101322.13;4896430;29;19934;-79
2022/06/23 03:23:37;;;;;;;;;;;;;;;23.09;45.00;101330.00;4897357;29;19918;-79
2022/06/23 03:26:05;;;;;;;;;;;;;;;23.10;45.18;101326.44;4892283;29;19911;-80
2022/06/23 03:28:39;;;;;;;;;;;;;;;23.09;45.14;101319.50;4892109;29;19912;-80
2022/06/23 03:31:31;;;;;;;;;;;;;;;23.10;44.99;101326.44;4871926;29;19928;-80
2022/06/23 03:34:00;;;;;;;;;;;;;;;23.09;45.02;101324.75;4867330;29;20247;-79
2022/06/23 03:36:29;;;;;;;;;;;;;;;23.09;44.85;101327.38;4870507;29;19979;-79
2022/06/23 03:41:48;;;;;;;;;;;;;;;23.08;44.72;101336.13;4886568;29;19918;-80
2022/06/23 03:44:17;;;;;;;;;;;;;;;23.07;44.73;101319.53;4869089;29;19915;-79
2022/06/23 03:46:54;;;;;;;;;;;;;;;23.06;45.03;101325.69;4868799;29;19946;-80
2022/06/23 03:49:33;;;;;;;;;;;;;;;23.08;44.88;101325.63;4869114;29;20021;-78
2022/06/23 03:52:00;;;;;;;;;;;;;;;23.07;44.81;101318.66;4868444;29;19941;-78
2022/06/23 03:54:28;;;;;;;;;;;;;;;23.06;44.64;101317.81;4884579;29;19918;-78
2022/06/23 03:56:56;;;;;;;;;;;;;;;23.04;44.86;101310.84;4869230;29;19912;-78
2022/06/23 03:59:30;;;;;;;;;;;;;;;23.03;44.77;101315.25;4868210;29;20295;-78
2022/06/23 04:01:55;;;;;;;;;;;;;;;23.03;45.04;101317.00;4883754;29;20358;-78
2022/06/23 04:04:44;;;;;;;;;;;;;;;23.03;44.61;101310.00;4867107;29;19919;-78
2022/06/23 04:07:28;;;;;;;;;;;;;;;23.06;44.75;101311.69;4849873;29;19994;-78
2022/06/23 04:09:54;;;;;;;;;;;;;;;23.06;44.62;101309.94;4867478;29;19912;-78
2022/06/23 04:12:19;;;;;;;;;;;;;;;23.09;44.85;101324.75;4851812;29;19922;-79
2022/06/23 04:14:49;;;;;;;;;;;;;;;23.08;44.62;101318.63;4851797;29;20394;-78
2022/06/23 04:17:14;;;;;;;;;;;;;;;23.07;44.77;101306.41;4883961;29;19912;-78
2022/06/23 04:19:43;;;;;;;;;;;;;;;23.07;44.57;101305.53;4883947;29;19911;-78
2022/06/23 04:22:24;;;;;;;;;;;;;;;23.06;44.39;101301.19;4867210;29;19972;-79
2022/06/23 04:24:52;;;;;;;;;;;;;;;23.03;44.75;101296.03;4883803;29;19912;-78
2022/06/23 04:27:23;;;;;;;;;;;;;;;23.03;44.91;101298.66;4868065;29;19916;-78
2022/06/23 04:29:50;;;;;;;;;;;;;;;23.03;45.01;101293.41;4884072;29;19912;-78
2022/06/23 04:32:30;;;;;;;;;;;;;;;23.02;44.73;101289.91;4865705;29;19911;-78
2022/06/23 04:34:59;;;;;;;;;;;;;;;23.04;44.97;101292.47;4865596;29;20322;-77
2022/06/23 04:37:29;;;;;;;;;;;;;;;23.03;45.03;101299.50;4882609;29;19916;-78
2022/06/23 04:40:15;;;;;;;;;;;;;;;23.03;45.09;101289.00;4882275;29;19912;-78
2022/06/23 04:42:44;;;;;;;;;;;;;;;23.04;45.21;101295.09;4865307;29;20275;-78
2022/06/23 04:45:28;;;;;;;;;;;;;;;23.05;45.14;101281.09;4882424;29;19911;-78
2022/06/23 04:47:54;;;;;;;;;;;;;;;23.07;45.16;101295.03;4865844;29;20493;-78
2022/06/23 04:50:49;;;;;;;;;;;;;;;23.09;45.20;101286.22;4865878;29;19912;-78
2022/06/23 04:53:17;;;;;;;;;;;;;;;23.12;45.31;101275.63;4849533;29;20384;-78
2022/06/23 04:55:43;;;;;;;;;;;;;;;23.15;44.89;101280.81;4881847;29;19912;-78
2022/06/23 04:58:11;;;;;;;;;;;;;;;22.97;45.62;101281.25;4882637;29;20397;-77
2022/06/23 05:00:44;;;;;;;;;;;;;;;22.78;45.89;101283.47;4884789;29;20011;-78
2022/06/23 05:03:19;;;;;;;;;;;;;;;22.59;46.50;101290.91;4867317;29;19934;-77
2022/06/23 05:05:52;;;;;;;;;;;;;;;22.42;47.05;101290.44;4866960;29;19911;-78
2022/06/23 05:08:23;;;;;;;;;;;;;;;22.42;46.81;101288.69;4891795;29;19911;-78
2022/06/23 05:10:54;;;;;;;;;;;;;;;22.45;46.99;101274.63;4894281;29;19912;-79
2022/06/23 05:13:24;;;;;;;;;;;;;;;22.67;46.69;101273.25;4870739;29;19919;-78
2022/06/23 05:16:01;;;;;;;;;;;;;;;22.71;46.57;101268.75;4883570;29;20014;-78
2022/06/23 05:18:47;;;;;;;;;;;;;;;22.65;46.47;101277.66;4866222;29;19955;-76
2022/06/23 05:21:32;;;;;;;;;;;;;;;22.53;46.86;101276.16;4881883;29;19912;-78
2022/06/23 05:24:04;;;;;;;;;;;;;;;22.62;46.54;101274.25;4858726;29;19911;-78
2022/06/23 05:26:36;;;;;;;;;;;;;;;22.62;46.85;101272.47;4865120;29;19919;-78
2022/06/23 05:29:05;;;;;;;;;;;;;;;22.57;47.00;101272.59;4865139;29;19915;-78
2022/06/23 05:31:35;;;;;;;;;;;;;;;22.54;46.88;101269.19;4864763;29;19915;-78
2022/06/23 05:34:04;;;;;;;;;;;;;;;22.57;46.89;101271.72;4864615;29;19915;-78
2022/06/23 05:36:34;;;;;;;;;;;;;;;22.62;46.72;101275.09;4881178;29;19911;-78
2022/06/23 05:39:13;;;;;;;;;;;;;;;22.64;46.93;101273.28;4880485;29;19932;-78
2022/06/23 05:41:43;;;;;;;;;;;;;;;22.70;46.88;101269.69;4881305;29;19911;-77
2022/06/23 05:44:18;;;;;;;;;;;;;;;22.73;46.87;101273.09;4881177;29;19916;-78
2022/06/23 05:46:44;;;;;;;;;;;;;;;22.70;47.00;101278.41;4864541;29;19916;-78
2022/06/23 05:49:18;;;;;;;;;;;;;;;22.73;46.63;101280.97;4849199;29;19939;-78
2022/06/23 05:52:04;;;;;;;;;;;;;;;22.79;46.52;101274.69;4882382;29;19994;-80
2022/06/23 05:54:41;;;;;;;;;;;;;;;22.83;46.48;101275.50;4904565;29;19972;-83
2022/06/23 05:57:13;;;;;;;;;;;;;;;22.82;46.52;101282.50;4904173;29;19928;-84
2022/06/23 05:59:45;;;;;;;;;;;;;;;22.84;46.16;101285.06;4888187;29;19904;-83
2022/06/23 06:02:13;;;;;;;;;;;;;;;22.84;45.88;101279.81;4888488;29;19904;-83
2022/06/23 06:09:49;;;;;;;;;;;;;;;22.88;45.75;101263.97;5264073;23;19908;-83
2022/06/23 06:12:28;;;;;;;;;;;;;;;22.89;45.53;101260.44;4884914;29;19947;-83
2022/06/23 06:15:04;;;;;;;;;;;;;;;22.92;45.53;101264.75;4902085;29;19947;-82
2022/06/23 06:17:31;;;;;;;;;;;;;;;22.91;45.41;101276.16;4884188;29;19912;-83
2022/06/23 06:19:58;;;;;;;;;;;;;;;22.91;45.58;101269.16;4884747;29;20376;-82
2022/06/23 06:22:42;;;;;;;;;;;;;;;22.94;45.22;101265.59;4884464;29;19919;-82
2022/06/23 06:25:16;;;;;;;;;;;;;;;22.94;44.99;101258.56;4900616;29;19954;-82
2022/06/23 06:27:41;;;;;;;;;;;;;;;22.96;45.10;101253.28;4884697;29;19896;-81
2022/06/23 06:30:13;;;;;;;;;;;;;;;23.01;45.00;101251.44;4901059;29;19896;-81
2022/06/23 06:35:18;;;;;;;;;;;;;;;23.01;44.98;101251.44;5011300;23;19928;-82
2022/06/23 06:37:47;;;;;;;;;;;;;;;23.05;44.93;101260.09;4981695;23;19987;-80
2022/06/23 06:40:13;;;;;;;;;;;;;;;23.04;44.71;101266.22;4864619;29;19911;-79
2022/06/23 06:42:42;;;;;;;;;;;;;;;23.02;44.82;101263.66;4881362;29;19919;-78
2022/06/23 06:45:10;;;;;;;;;;;;;;;23.04;44.64;101269.75;4880836;29;19912;-77
2022/06/23 06:47:36;;;;;;;;;;;;;;;23.08;44.83;101276.63;4880959;29;19953;-79
2022/06/23 06:50:07;;;;;;;;;;;;;;;23.13;44.66;101273.88;4882398;29;19912;-79
2022/06/23 06:52:32;;;;;;;;;;;;;;;23.17;44.30;101271.13;4884241;29;19912;-77
2022/06/23 06:55:10;;;;;;;;;;;;;;;23.16;44.55;101285.16;4867470;29;20437;-77
2022/06/23 06:57:42;;;;;;;;;;;;;;;23.17;44.13;101284.28;4867403;29;20003;-77
2022/06/23 07:00:27;;;;;;;;;;;;;;;23.24;44.54;101281.50;4884035;29;19911;-78
2022/06/23 07:03:00;;;;;;;;;;;;;;;23.23;44.20;101266.63;4883548;29;20002;-77
2022/06/23 07:05:44;;;;;;;;;;;;;;;23.24;44.17;101269.22;4851965;29;19923;-78
2022/06/23 07:08:13;;;;;;;;;;;;;;;23.23;44.33;101262.22;4867222;29;20017;-78
2022/06/23 07:10:42;;;;;;;;;;;;;;;23.25;44.03;101259.56;4883796;29;20371;-77
2022/06/23 07:13:20;;;;;;;;;;;;;;;23.26;44.01;101259.53;4867108;29;19918;-78
2022/06/23 07:15:49;;;;;;;;;;;;;;;23.31;44.12;101259.41;4883850;29;19911;-78
2022/06/23 07:18:27;;;;;;;;;;;;;;;23.31;43.96;101255.00;4883597;29;19955;-77
2022/06/23 07:21:12;;;;;;;;;;;;;;;23.32;44.23;101245.34;4866873;29;19912;-77
2022/06/23 07:23:43;;;;;;;;;;;;;;;23.35;44.08;101240.91;4866963;29;19918;-77
2022/06/23 07:26:27;;;;;;;;;;;;;;;23.34;44.11;101243.56;4866947;29;19912;-76
2022/06/23 07:28:56;;;;;;;;;;;;;;;23.36;44.33;101241.75;4866709;29;19983;-77
2022/06/23 07:31:34;;;;;;;;;;;;;;;23.39;44.21;101239.06;4866774;29;19927;-77
2022/06/23 07:34:01;;;;;;;;;;;;;;;23.41;43.85;101250.38;4866584;29;19916;-77
2022/06/23 07:36:53;;;;;;;;;;;;;;;23.44;43.93;101244.19;4883183;29;19998;-78
2022/06/23 07:39:20;;;;;;;;;;;;;;;23.47;43.93;101247.56;4879374;29;19916;-77
2022/06/23 07:42:09;;;;;;;;;;;;;;;23.46;43.79;101237.97;4869332;29;19947;-78
2022/06/23 07:44:37;;;;;;;;;;;;;;;23.47;43.81;101231.81;4870484;29;19912;-79
2022/06/23 07:47:03;;;;;;;;;;;;;;;23.47;43.75;101226.56;4874631;29;19975;-78
2022/06/23 07:49:29;;;;;;;;;;;;;;;23.45;43.77;101215.22;4885727;29;19951;-76
2022/06/23 07:51:55;;;;;;;;;;;;;;;23.51;43.50;101215.06;4885449;29;19962;-77
2022/06/23 07:54:21;;;;;;;;;;;;;;;23.53;43.32;101218.50;4856084;29;19915;-77
2022/06/23 07:56:47;;;;;;;;;;;;;;;23.52;43.45;101218.56;4873753;29;19964;-77
2022/06/23 07:59:17;;;;;;;;;;;;;;;23.55;43.52;101219.31;4885660;29;19916;-77
2022/06/23 08:01:45;;;;;;;;;;;;;;;23.56;43.48;101213.19;4882865;29;19911;-77
2022/06/23 08:04:25;;;;;;;;;;;;;;;23.60;43.60;101220.06;4866570;29;20286;-77
2022/06/23 08:06:51;;;;;;;;;;;;;;;23.55;43.42;101210.59;4883169;29;20410;-78
2022/06/23 08:09:22;;;;;;;;;;;;;;;23.57;43.56;101199.13;4850960;29;19916;-77
2022/06/23 08:14:33;;;;;;;;;;;;;;;23.58;43.30;101221.88;4869141;29;19963;-77
2022/06/23 08:17:00;;;;;;;;;;;;;;;23.60;43.32;101213.94;4866009;29;20366;-78
2022/06/23 08:19:37;;;;;;;;;;;;;;;23.58;42.92;101208.75;4865978;29;20366;-79
2022/06/23 08:22:21;;;;;;;;;;;;;;;23.61;42.91;101211.28;4882627;29;19918;-77
2022/06/23 08:24:48;;;;;;;;;;;;;;;23.59;43.37;101212.22;4883007;29;20359;-77
2022/06/23 08:27:18;;;;;;;;;;;;;;;23.64;42.88;101220.81;4865764;29;19915;-76
2022/06/23 08:29:51;;;;;;;;;;;;;;;23.68;43.14;101211.09;4882439;29;19919;-77
2022/06/23 08:32:17;;;;;;;;;;;;;;;23.65;43.33;101208.53;4865712;29;19912;-77
2022/06/23 08:34:54;;;;;;;;;;;;;;;23.68;43.09;101201.44;4865667;29;19932;-77
2022/06/23 08:37:21;;;;;;;;;;;;;;;23.68;43.59;101201.44;4881981;29;19920;-78
2022/06/23 08:39:52;;;;;;;;;;;;;;;23.65;43.52;101200.66;4882651;29;19972;-77
2022/06/23 08:42:29;;;;;;;;;;;;;;;23.71;43.27;101201.34;4865902;29;19911;-77
2022/06/23 08:44:58;;;;;;;;;;;;;;;23.68;43.28;101200.59;4886922;29;20346;-77
2022/06/23 08:47:42;;;;;;;;;;;;;;;23.77;43.46;101202.97;4872378;29;19915;-77
2022/06/23 08:50:11;;;;;;;;;;;;;;;23.77;43.60;101205.59;4888324;29;19912;-77
2022/06/23 08:52:36;;;;;;;;;;;;;;;23.79;43.76;101207.25;4885557;29;20347;-77
2022/06/23 08:55:06;;;;;;;;;;;;;;;23.82;43.80;101206.31;4884383;29;19912;-77
2022/06/23 08:57:32;;;;;;;;;;;;;;;23.87;43.66;101207.06;4867216;29;19912;-77
2022/06/23 09:00:03;;;;;;;;;;;;;;;23.91;43.74;101208.69;4866992;29;19911;-77
2022/06/23 09:02:28;;;;;;;;;;;;;;;23.91;43.64;101203.44;4866224;29;19908;-77
2022/06/23 09:04:59;;;;;;;;;;;;;;;23.91;43.95;101205.16;4865971;29;19918;-78
2022/06/23 09:07:44;;;;;;;;;;;;;;;23.92;43.64;101205.13;4882981;29;19911;-78
2022/06/23 09:10:24;;;;;;;;;;;;;;;23.95;43.47;101197.19;4866844;29;19918;-78
2022/06/23 09:12:49;;;;;;;;;;;;;;;23.96;43.59;101204.13;4866548;29;20006;-78
2022/06/23 09:15:17;;;;;;;;;;;;;;;23.95;43.62;101202.44;4882526;29;20377;-78
2022/06/23 09:17:45;;;;;;;;;;;;;;;23.99;43.29;101193.50;4882407;29;19919;-77
2022/06/23 09:20:24;;;;;;;;;;;;;;;24.02;43.53;101184.69;4865612;29;19918;-77
2022/06/23 09:22:58;;;;;;;;;;;;;;;23.99;43.33;101180.38;4865349;29;20006;-77
2022/06/23 09:25:33;;;;;;;;;;;;;;;24.01;43.66;101182.97;4881895;29;19946;-78
2022/06/23 09:28:11;;;;;;;;;;;;;;;23.99;43.55;101184.78;4882136;29;19957;-77
2022/06/23 09:30:38;;;;;;;;;;;;;;;24.04;43.40;101177.63;4864568;29;19919;-77
2022/06/23 09:33:04;;;;;;;;;;;;;;;24.01;43.71;101175.06;4881921;29;19919;-77
2022/06/23 09:35:40;;;;;;;;;;;;;;;23.95;43.96;101173.53;4865212;29;19911;-77
2022/06/23 09:38:11;;;;;;;;;;;;;;;24.00;43.78;101171.59;4881829;29;20266;-76
2022/06/23 09:40:42;;;;;;;;;;;;;;;24.04;43.59;101164.47;4881780;29;19955;-77
2022/06/23 09:43:19;;;;;;;;;;;;;;;24.04;43.58;101167.13;4881805;29;19919;-77
2022/06/23 09:45:46;;;;;;;;;;;;;;;24.09;43.50;101173.06;4881584;29;19912;-77
2022/06/23 09:48:30;;;;;;;;;;;;;;;24.03;43.34;101176.75;4864858;29;19915;-77
2022/06/23 09:51:31;;;;;;;;;;;;;;;24.08;43.70;101173.97;4864879;29;19955;-77
2022/06/23 09:54:16;;;;;;;;;;;;;;;24.11;43.34;101179.16;4842347;29;19912;-77
2022/06/23 09:57:00;;;;;;;;;;;;;;;24.11;43.56;101167.78;4862016;29;20015;-77
2022/06/23 09:59:28;;;;;;;;;;;;;;;24.08;43.64;101166.06;4864515;29;20382;-78
2022/06/23 10:01:59;;;;;;;;;;;;;;;24.09;43.27;101165.19;4881480;29;20390;-78
2022/06/23 10:04:28;;;;;;;;;;;;;;;24.06;43.25;101164.41;4864850;29;20006;-78
2022/06/23 10:07:05;;;;;;;;;;;;;;;24.08;43.13;101166.06;4864474;29;19960;-77
2022/06/23 10:09:33;;;;;;;;;;;;;;;24.10;43.39;101163.41;4881128;29;19940;-77
2022/06/23 10:12:17;;;;;;;;;;;;;;;24.08;43.46;101168.72;4864805;29;19954;-77
2022/06/23 10:14:53;;;;;;;;;;;;;;;24.11;43.48;101179.16;4881717;29;19919;-77
2022/06/23 10:17:43;;;;;;;;;;;;;;;24.13;43.59;101173.84;4867441;29;19918;-78
2022/06/23 10:20:20;;;;;;;;;;;;;;;24.11;43.69;101165.16;4873589;29;19915;-78
2022/06/23 10:22:46;;;;;;;;;;;;;;;24.14;43.60;101165.03;4871328;29;20010;-78
2022/06/23 10:25:23;;;;;;;;;;;;;;;24.13;43.60;101164.19;4870834;29;19955;-77
2022/06/23 10:28:11;;;;;;;;;;;;;;;24.18;43.32;101158.78;4872332;29;20442;-77
2022/06/23 10:30:52;;;;;;;;;;;;;;;24.23;43.54;101165.59;4888838;29;20378;-77
2022/06/23 10:33:33;;;;;;;;;;;;;;;24.22;43.71;101160.41;4877797;29;20386;-78
2022/06/23 10:36:09;;;;;;;;;;;;;;;24.22;43.82;101161.25;4891276;29;19963;-77
2022/06/23 10:38:38;;;;;;;;;;;;;;;24.27;43.98;101155.84;4888660;29;19919;-77
2022/06/23 10:41:41;;;;;;;;;;;;;;;24.21;44.22;101151.66;4888270;29;19918;-78
2022/06/23 10:44:24;;;;;;;;;;;;;;;24.24;44.13;101150.69;4833661;29;19919;-77
2022/06/23 10:46:49;;;;;;;;;;;;;;;24.27;44.19;101147.94;4833056;29;19977;-77
2022/06/23 10:49:20;;;;;;;;;;;;;;;24.29;44.14;101140.88;4871000;29;19911;-77
2022/06/23 10:52:05;;;;;;;;;;;;;;;24.34;44.13;101140.72;4870303;29;20014;-77
2022/06/23 10:54:49;;;;;;;;;;;;;;;24.30;44.25;101129.47;4870230;29;19965;-77
2022/06/23 10:57:23;;;;;;;;;;;;;;;24.31;44.70;101127.69;4870191;29;19922;-77
2022/06/23 10:59:48;;;;;;;;;;;;;;;24.27;45.24;101133.94;4869944;29;20022;-77
2022/06/23 11:02:29;;;;;;;;;;;;;;;24.32;44.84;101129.38;4887014;29;19963;-77
2022/06/23 11:05:00;;;;;;;;;;;;;;;24.30;45.31;101118.06;4870242;29;19964;-77
2022/06/23 11:07:43;;;;;;;;;;;;;;;24.31;45.45;101118.00;4886872;29;19994;-77
2022/06/23 11:10:09;;;;;;;;;;;;;;;24.35;45.13;101117.00;4870238;29;20461;-77
2022/06/23 11:12:50;;;;;;;;;;;;;;;24.36;45.26;101116.06;4870648;29;19912;-76
2022/06/23 11:15:23;;;;;;;;;;;;;;;24.41;45.44;101118.56;4875571;29;19912;-76
2022/06/23 11:17:49;;;;;;;;;;;;;;;24.43;45.65;101107.09;4874897;29;19924;-76
2022/06/23 11:20:32;;;;;;;;;;;;;;;24.38;45.84;101116.88;4889908;29;19967;-77
2022/06/23 11:23:20;;;;;;;;;;;;;;;24.43;45.93;101107.09;4872214;29;19912;-77
2022/06/23 11:25:45;;;;;;;;;;;;;;;24.43;46.03;101106.19;4888033;29;19919;-77
2022/06/23 11:28:31;;;;;;;;;;;;;;;24.40;45.59;101101.06;4871268;29;19911;-77
2022/06/23 11:31:11;;;;;;;;;;;;;;;24.38;45.96;101109.00;4886963;29;19968;-77
2022/06/23 11:33:42;;;;;;;;;;;;;;;24.47;45.73;101115.72;4870880;29;20389;-76
2022/06/23 11:36:07;;;;;;;;;;;;;;;24.49;45.83;101105.19;4867858;29;19916;-77
2022/06/23 11:38:48;;;;;;;;;;;;;;;24.52;45.79;101105.94;4883723;29;20442;-76
2022/06/23 11:41:28;;;;;;;;;;;;;;;24.53;45.97;101104.16;4883926;29;19915;-76
2022/06/23 11:44:13;;;;;;;;;;;;;;;24.53;45.94;101094.50;4884327;29;19915;-77
2022/06/23 11:46:48;;;;;;;;;;;;;;;24.54;46.33;101097.97;4866246;29;19983;-77
2022/06/23 11:49:24;;;;;;;;;;;;;;;24.56;46.05;101093.53;4867118;29;20430;-77
2022/06/23 11:52:05;;;;;;;;;;;;;;;24.53;46.50;101091.88;4867052;29;19916;-78
2022/06/23 11:54:49;;;;;;;;;;;;;;;24.57;46.44;101096.09;4869054;29;20025;-77
2022/06/23 11:57:43;;;;;;;;;;;;;;;24.56;46.63;101093.53;4886059;29;19912;-77
2022/06/23 12:00:10;;;;;;;;;;;;;;;24.62;46.17;101090.69;4818311;29;19917;-78
2022/06/23 12:02:45;;;;;;;;;;;;;;;24.65;46.28;101085.34;4867256;29;19919;-78
2022/06/23 12:05:17;;;;;;;;;;;;;;;24.76;46.59;101085.81;4866992;29;20359;-78
2022/06/23 12:07:48;;;;;;;;;;;;;;;24.92;46.28;101078.19;4883535;29;19918;-78
2022/06/23 12:10:15;;;;;;;;;;;;;;;24.85;46.74;101087.25;4883294;29;20377;-78
2022/06/23 12:12:43;;;;;;;;;;;;;;;24.79;46.28;101090.94;4866517;29;20011;-78
2022/06/23 12:15:10;;;;;;;;;;;;;;;24.76;47.07;101084.91;4866508;29;19912;-78
2022/06/23 12:17:47;;;;;;;;;;;;;;;24.82;47.14;101087.34;4883112;29;19911;-78
2022/06/23 12:20:39;;;;;;;;;;;;;;;24.81;47.33;101090.91;4866207;29;19912;-78
2022/06/23 12:23:27;;;;;;;;;;;;;;;24.87;47.19;101084.53;4879111;29;20370;-78
2022/06/23 12:26:04;;;;;;;;;;;;;;;24.83;47.39;101087.28;4872644;29;19912;-77
2022/06/23 12:28:42;;;;;;;;;;;;;;;24.82;47.38;101077.69;4882630;29;19918;-77
2022/06/23 12:31:21;;;;;;;;;;;;;;;24.79;47.86;101082.19;4866306;29;20007;-78
2022/06/23 12:33:46;;;;;;;;;;;;;;;24.77;48.11;101074.34;4866326;29;19912;-77
2022/06/23 12:36:20;;;;;;;;;;;;;;;24.80;48.14;101076.88;4883295;29;19912;-78
2022/06/23 12:38:48;;;;;;;;;;;;;;;24.80;47.83;101074.25;4865847;29;19919;-78
2022/06/23 12:41:26;;;;;;;;;;;;;;;24.88;48.37;101066.06;4866089;29;19915;-78
2022/06/23 12:43:59;;;;;;;;;;;;;;;24.90;48.02;101073.91;4866638;29;20030;-78
2022/06/23 12:46:25;;;;;;;;;;;;;;;24.88;48.20;101063.44;4865660;29;19912;-78
2022/06/23 12:49:09;;;;;;;;;;;;;;;24.89;48.30;101061.66;4865777;29;19927;-78
2022/06/23 12:51:40;;;;;;;;;;;;;;;24.86;47.77;101057.38;4868316;29;19912;-77
2022/06/23 12:54:17;;;;;;;;;;;;;;;24.90;47.97;101048.44;4890470;29;19935;-78
2022/06/23 12:57:01;;;;;;;;;;;;;;;24.89;47.92;101054.63;4873285;29;19912;-77
2022/06/23 12:59:31;;;;;;;;;;;;;;;24.91;47.62;101049.28;4885132;29;19916;-78
2022/06/23 13:01:57;;;;;;;;;;;;;;;24.94;47.47;101049.19;4867184;29;19959;-77
2022/06/23 13:04:29;;;;;;;;;;;;;;;24.89;47.36;101043.22;4866663;29;19959;-77
2022/06/23 13:07:14;;;;;;;;;;;;;;;24.90;47.47;101039.69;4866491;29;20326;-77
2022/06/23 13:09:59;;;;;;;;;;;;;;;24.93;47.00;101044.81;4866030;29;20294;-77
2022/06/23 13:12:33;;;;;;;;;;;;;;;24.94;47.03;101046.56;4865767;29;19912;-78
2022/06/23 13:15:05;;;;;;;;;;;;;;;24.91;47.09;101042.28;4866010;29;19967;-77
2022/06/23 13:17:43;;;;;;;;;;;;;;;24.94;47.12;101043.94;4882637;29;19912;-76
2022/06/23 13:20:27;;;;;;;;;;;;;;;24.93;46.71;101045.69;4882133;29;20372;-77
2022/06/23 13:22:59;;;;;;;;;;;;;;;24.93;46.97;101034.31;4865511;29;19917;-77
2022/06/23 13:25:27;;;;;;;;;;;;;;;24.93;46.91;101029.88;4865706;29;19915;-76